createdAt,value
2018-06-23T00:02:14.595Z,76.88
2018-06-23T00:04:43.201Z,75.84
2018-06-23T00:07:11.790Z,76.39
2018-06-23T00:09:40.514Z,76.73
2018-06-23T00:12:09.097Z,75.16
2018-06-23T00:14:37.581Z,75.49
2018-06-23T00:17:06.222Z,75.09
2018-06-23T00:19:34.749Z,75.94
2018-06-23T00:22:03.317Z,76.15
2018-06-23T00:24:31.885Z,76.59
2018-06-23T00:27:00.351Z,77.27
2018-06-23T00:29:29.282Z,76.81
2018-06-23T00:31:57.873Z,77.82
2018-06-23T00:34:26.890Z,78.04
2018-06-23T00:36:55.474Z,78.48
2018-06-23T00:39:24.037Z,78.20
2018-06-23T00:41:52.494Z,78.87
2018-06-23T00:44:21.080Z,79.60
2018-06-23T00:46:49.766Z,79.23
2018-06-23T00:49:18.313Z,79.49
2018-06-23T00:51:46.791Z,78.83
2018-06-23T00:54:15.348Z,79.08
2018-06-23T00:56:43.917Z,79.89
2018-06-23T00:59:23.636Z,79.81
2018-06-23T01:01:52.363Z,79.42
2018-06-23T01:04:20.921Z,78.70
2018-06-23T01:06:49.504Z,79.32
2018-06-23T01:09:17.998Z,78.76
2018-06-23T01:11:46.662Z,79.27
2018-06-23T01:14:15.190Z,79.69
2018-06-23T01:16:43.723Z,80.24
2018-06-23T01:19:12.466Z,80.32
2018-06-23T01:21:41.117Z,80.58
2018-06-23T01:24:09.731Z,81.34
2018-06-23T01:26:38.372Z,81.88
2018-06-23T01:29:07.100Z,81.60
2018-06-23T01:31:35.784Z,81.40
2018-06-23T01:34:04.372Z,81.66
2018-06-23T01:36:32.895Z,82.57
2018-06-23T01:39:01.484Z,82.63
2018-06-23T01:41:30.095Z,83.15
2018-06-23T01:43:58.854Z,82.97
2018-06-23T01:46:27.371Z,83.74
2018-06-23T01:48:55.985Z,83.71
2018-06-23T01:51:24.562Z,83.63
2018-06-23T01:53:53.200Z,84.09
2018-06-23T01:56:21.803Z,83.84
2018-06-23T01:58:50.374Z,84.74
2018-06-23T02:01:19.010Z,85.15
2018-06-23T02:03:47.763Z,84.62
2018-06-23T02:06:17.020Z,84.63
2018-06-23T02:08:46.158Z,85.25
2018-06-23T02:11:14.779Z,84.99
2018-06-23T02:13:43.620Z,84.96
2018-06-23T02:18:24.091Z,85.30
2018-06-23T02:20:57.872Z,85.78
2018-06-23T02:23:31.542Z,85.75
2018-06-23T02:26:05.401Z,85.83
2018-06-23T02:28:39.513Z,85.55
2018-06-23T02:31:13.405Z,85.28
2018-06-23T02:33:47.224Z,86.25
2018-06-23T02:36:15.820Z,86.59
2018-06-23T02:38:44.402Z,86.86
2018-06-23T02:41:13.167Z,87.12
2018-06-23T02:43:41.654Z,86.46
2018-06-23T02:46:10.163Z,87.18
2018-06-23T02:48:38.702Z,87.04
2018-06-23T02:51:07.930Z,87.54
2018-06-23T02:53:36.449Z,87.28
2018-06-23T02:56:05.098Z,87.10
2018-06-23T02:58:33.692Z,87.26
2018-06-23T03:01:02.256Z,87.69
2018-06-23T03:03:30.881Z,88.00
2018-06-23T03:05:59.407Z,87.58
2018-06-23T03:08:28.026Z,88.27
2018-06-23T03:10:56.603Z,88.08
2018-06-23T03:13:25.115Z,87.50
2018-06-23T03:15:53.693Z,88.01
2018-06-23T03:18:22.303Z,87.87
2018-06-23T03:20:50.820Z,88.21
2018-06-23T03:23:25.930Z,88.08
2018-06-23T03:25:54.447Z,88.29
2018-06-23T03:28:23.182Z,87.75
2018-06-23T03:30:51.763Z,87.69
2018-06-23T03:33:20.397Z,86.96
2018-06-23T03:35:48.931Z,87.03
2018-06-23T03:38:17.456Z,87.94
2018-06-23T03:40:45.992Z,87.76
2018-06-23T03:43:14.597Z,87.67
2018-06-23T03:45:44.087Z,86.75
2018-06-23T03:48:12.666Z,86.26
2018-06-23T03:50:41.179Z,86.95
2018-06-23T03:53:09.646Z,86.93
2018-06-23T03:55:38.176Z,86.49
2018-06-23T03:58:07.019Z,86.42
2018-06-23T04:00:35.515Z,85.81
2018-06-23T04:03:04.047Z,87.18
2018-06-23T04:05:32.777Z,87.74
2018-06-23T04:08:01.285Z,87.48
2018-06-23T04:10:29.846Z,88.16
2018-06-23T04:12:58.614Z,89.33
2018-06-23T04:15:27.149Z,89.34
2018-06-23T04:17:55.689Z,89.26
2018-06-23T04:20:24.504Z,90.36
2018-06-23T04:22:53.008Z,90.16
2018-06-23T04:25:23.157Z,90.40
2018-06-23T04:27:51.799Z,91.07
2018-06-23T04:30:20.271Z,92.59
2018-06-23T04:32:48.799Z,92.96
2018-06-23T04:35:17.373Z,93.73
2018-06-23T04:37:46.159Z,93.28
2018-06-23T04:40:14.628Z,95.05
2018-06-23T04:42:43.280Z,95.66
2018-06-23T04:45:12.006Z,96.60
2018-06-23T04:47:40.525Z,97.36
2018-06-23T04:50:09.366Z,96.86
2018-06-23T04:52:37.977Z,96.50
2018-06-23T04:55:06.518Z,97.29
2018-06-23T04:57:35.487Z,97.19
2018-06-23T05:00:04.127Z,98.49
2018-06-23T05:02:32.677Z,98.09
2018-06-23T05:05:01.234Z,98.14
2018-06-23T05:07:30.049Z,98.69
2018-06-23T05:09:58.549Z,98.84
2018-06-23T05:12:27.071Z,99.36
2018-06-23T05:14:55.698Z,98.58
2018-06-23T05:17:24.300Z,98.42
2018-06-23T05:19:52.870Z,99.07
2018-06-23T05:22:21.697Z,98.95
2018-06-23T05:24:50.425Z,98.97
2018-06-23T05:27:18.949Z,99.37
2018-06-23T05:29:47.450Z,99.89
2018-06-23T05:32:16.266Z,99.36
2018-06-23T05:34:44.803Z,99.79
2018-06-23T05:37:13.346Z,99.60
2018-06-23T05:39:41.915Z,99.57
2018-06-23T05:42:10.478Z,99.74
2018-06-23T05:44:39.034Z,99.83
2018-06-23T05:47:07.575Z,99.30
2018-06-23T05:49:36.111Z,99.93
2018-06-23T05:52:04.741Z,99.85
2018-06-23T05:54:33.300Z,99.44
2018-06-23T05:57:01.836Z,99.95
2018-06-23T05:59:30.777Z,99.81
2018-06-23T06:01:59.510Z,99.61
2018-06-23T06:04:28.069Z,99.73
2018-06-23T06:06:56.798Z,99.77
2018-06-23T06:09:25.553Z,99.43
2018-06-23T06:11:54.274Z,99.66
2018-06-23T06:14:22.929Z,100.00
2018-06-23T06:17:54.046Z,99.86
2018-06-23T06:20:22.742Z,99.99
2018-06-23T06:22:51.295Z,99.94
2018-06-23T06:25:20.818Z,100.00
2018-06-23T06:27:49.592Z,100.00
2018-06-23T06:30:18.133Z,99.35
2018-06-23T06:32:47.100Z,99.30
2018-06-23T06:35:15.735Z,99.37
2018-06-23T06:37:45.399Z,99.91
2018-06-23T06:40:13.959Z,99.85
2018-06-23T06:42:42.541Z,99.27
2018-06-23T06:45:11.040Z,98.65
2018-06-23T06:47:39.606Z,98.86
2018-06-23T06:50:08.197Z,98.05
2018-06-23T06:52:36.861Z,98.11
2018-06-23T06:55:05.643Z,98.54
2018-06-23T06:57:34.251Z,97.75
2018-06-23T07:00:02.763Z,97.43
2018-06-23T07:02:31.263Z,97.33
2018-06-23T07:05:00.022Z,97.85
2018-06-23T07:07:28.823Z,97.43
2018-06-23T07:09:57.423Z,97.35
2018-06-23T07:12:26.007Z,97.40
2018-06-23T07:14:54.774Z,96.71
2018-06-23T07:17:23.312Z,97.12
2018-06-23T07:19:52.566Z,97.52
2018-06-23T07:22:21.055Z,96.48
2018-06-23T07:24:49.671Z,96.31
2018-06-23T07:27:18.252Z,96.66
2018-06-23T07:29:46.980Z,95.30
2018-06-23T07:32:15.840Z,96.04
2018-06-23T07:34:44.957Z,96.14
2018-06-23T07:37:13.965Z,95.13
2018-06-23T07:39:45.841Z,94.82
2018-06-23T07:42:14.711Z,95.42
2018-06-23T07:44:43.335Z,94.90
2018-06-23T07:47:11.966Z,95.37
2018-06-23T07:49:40.494Z,95.47
2018-06-23T07:52:09.190Z,95.98
2018-06-23T07:54:37.858Z,96.78
2018-06-23T07:57:06.625Z,97.28
2018-06-23T07:59:35.161Z,97.80
2018-06-23T08:02:03.817Z,99.06
2018-06-23T08:04:32.951Z,98.90
2018-06-23T08:07:01.877Z,98.79
2018-06-23T08:09:30.808Z,98.51
2018-06-23T08:11:59.694Z,99.47
2018-06-23T08:14:28.541Z,99.00
2018-06-23T08:16:57.332Z,99.10
2018-06-23T08:19:26.243Z,98.84
2018-06-23T08:21:54.843Z,98.90
2018-06-23T08:24:23.674Z,99.87
2018-06-23T08:26:52.198Z,99.32
2018-06-23T08:29:20.865Z,99.54
2018-06-23T08:31:49.687Z,100.00
2018-06-23T08:34:18.305Z,100.00
2018-06-23T08:36:47.006Z,100.00
2018-06-23T08:39:16.109Z,99.14
2018-06-23T08:41:44.933Z,98.06
2018-06-23T08:44:15.429Z,97.21
2018-06-23T08:46:44.571Z,95.25
2018-06-23T08:49:13.285Z,93.72
2018-06-23T08:51:42.206Z,92.04
2018-06-23T08:54:10.752Z,89.84
2018-06-23T08:56:39.633Z,89.27
2018-06-23T08:59:08.197Z,87.41
2018-06-23T09:01:37.048Z,87.55
2018-06-23T09:04:06.503Z,85.99
2018-06-23T09:06:36.009Z,83.14
2018-06-23T09:09:06.999Z,82.06
2018-06-23T09:11:35.528Z,81.91
2018-06-23T09:14:04.543Z,80.95
2018-06-23T09:16:33.066Z,80.46
2018-06-23T09:19:01.666Z,76.87
2018-06-23T09:21:30.500Z,78.72
2018-06-23T09:23:59.022Z,78.59
2018-06-23T09:26:27.886Z,78.61
2018-06-23T09:28:56.405Z,80.38
2018-06-23T09:31:25.118Z,78.61
2018-06-23T09:33:54.649Z,79.09
2018-06-23T09:36:23.273Z,78.64
2018-06-23T09:38:52.090Z,76.43
2018-06-23T09:41:20.857Z,74.30
2018-06-23T09:43:49.621Z,73.17
2018-06-23T09:46:18.356Z,74.12
2018-06-23T09:48:46.866Z,69.92
2018-06-23T09:51:15.740Z,70.99
2018-06-23T09:53:44.350Z,73.58
2018-06-23T09:56:13.638Z,75.01
2018-06-23T09:58:42.884Z,76.01
2018-06-23T10:01:12.536Z,78.54
2018-06-23T10:03:42.018Z,76.88
2018-06-23T10:06:11.158Z,78.84
2018-06-23T10:08:40.024Z,77.13
2018-06-23T10:11:09.028Z,76.79
2018-06-23T10:13:37.570Z,76.76
2018-06-23T10:16:07.114Z,76.39
2018-06-23T10:18:35.641Z,74.74
2018-06-23T10:21:04.488Z,74.43
2018-06-23T10:23:34.414Z,72.05
2018-06-23T10:26:03.427Z,71.62
2018-06-23T10:28:32.724Z,72.83
2018-06-23T10:31:02.334Z,72.37
2018-06-23T10:33:30.930Z,71.02
2018-06-23T10:35:59.870Z,70.79
2018-06-23T10:38:28.609Z,71.54
2018-06-23T10:40:57.225Z,70.79
2018-06-23T10:43:25.910Z,69.47
2018-06-23T10:45:54.771Z,67.78
2018-06-23T10:48:23.325Z,66.45
2018-06-23T10:50:51.923Z,65.29
2018-06-23T10:53:21.115Z,62.86
2018-06-23T10:55:49.970Z,64.38
2018-06-23T10:58:19.085Z,65.57
2018-06-23T11:00:48.027Z,67.06
2018-06-23T11:03:16.881Z,67.79
2018-06-23T11:05:46.380Z,68.27
2018-06-23T11:08:15.677Z,67.97
2018-06-23T11:10:44.698Z,69.22
2018-06-23T11:13:13.512Z,68.00
2018-06-23T11:15:42.780Z,68.35
2018-06-23T11:18:11.343Z,67.65
2018-06-23T11:20:41.921Z,66.32
2018-06-23T11:23:11.920Z,66.08
2018-06-23T11:25:41.108Z,64.57
2018-06-23T11:28:10.746Z,65.87
2018-06-23T11:30:39.721Z,63.08
2018-06-23T11:33:09.450Z,63.28
2018-06-23T11:35:42.113Z,62.97
2018-06-23T11:38:27.098Z,63.93
2018-06-23T11:43:49.540Z,62.19
2018-06-23T11:46:19.908Z,62.33
2018-06-23T11:48:50.033Z,62.48
2018-06-23T11:51:18.661Z,60.11
2018-06-23T11:53:47.274Z,60.42
2018-06-23T11:56:16.234Z,61.33
2018-06-23T11:58:45.124Z,60.96
2018-06-23T12:01:14.317Z,59.99
2018-06-23T12:03:44.035Z,59.36
2018-06-23T12:06:13.117Z,59.83
2018-06-23T12:08:41.978Z,58.74
2018-06-23T12:11:10.544Z,60.71
2018-06-23T12:13:39.658Z,60.14
2018-06-23T12:16:08.757Z,61.69
2018-06-23T12:18:39.515Z,61.39
2018-06-23T12:21:08.520Z,62.04
2018-06-23T12:23:37.491Z,62.22
2018-06-23T12:26:06.410Z,62.43
2018-06-23T12:28:35.235Z,63.07
2018-06-23T12:31:03.786Z,62.28
2018-06-23T12:33:32.462Z,62.86
2018-06-23T12:36:01.686Z,62.21
2018-06-23T12:38:30.838Z,63.96
2018-06-23T12:40:59.760Z,63.85
2018-06-23T12:43:28.560Z,63.61
2018-06-23T12:45:57.074Z,64.34
2018-06-23T12:48:25.732Z,64.98
2018-06-23T12:50:55.033Z,64.22
2018-06-23T12:53:23.643Z,63.81
2018-06-23T12:55:52.365Z,63.98
2018-06-23T12:58:21.179Z,63.58
2018-06-23T13:00:49.696Z,63.76
2018-06-23T13:03:18.371Z,63.77
2018-06-23T13:05:47.278Z,63.66
2018-06-23T13:08:16.232Z,64.16
2018-06-23T13:10:44.837Z,64.32
2018-06-23T13:13:13.725Z,65.23
2018-06-23T13:15:42.339Z,65.79
2018-06-23T13:18:11.919Z,66.50
2018-06-23T13:20:41.316Z,66.95
2018-06-23T13:23:10.420Z,67.59
2018-06-23T13:25:39.089Z,67.79
2018-06-23T13:28:09.504Z,68.40
2018-06-23T13:30:38.101Z,68.63
2018-06-23T13:33:06.946Z,68.21
2018-06-23T13:35:37.675Z,68.50
2018-06-23T13:38:06.364Z,68.62
2018-06-23T13:40:35.193Z,68.74
2018-06-23T13:43:03.906Z,68.46
2018-06-23T13:45:32.722Z,67.39
2018-06-23T13:48:01.284Z,68.69
2018-06-23T13:50:32.028Z,68.34
2018-06-23T13:53:01.325Z,68.19
2018-06-23T13:55:30.078Z,69.85
2018-06-23T13:57:58.628Z,69.73
2018-06-23T14:00:27.482Z,70.29
2018-06-23T14:02:56.146Z,69.43
2018-06-23T14:05:24.980Z,70.79
2018-06-23T14:07:53.781Z,71.96
2018-06-23T14:10:22.528Z,71.68
2018-06-23T14:12:51.420Z,71.69
2018-06-23T14:15:21.103Z,72.74
2018-06-23T14:17:49.804Z,72.84
2018-06-23T14:20:22.866Z,72.41
2018-06-23T14:22:51.465Z,72.84
2018-06-23T14:25:20.377Z,73.42
2018-06-23T14:27:48.957Z,73.70
2018-06-23T14:30:17.641Z,73.04
2018-06-23T14:32:46.454Z,72.87
2018-06-23T14:35:16.882Z,73.23
2018-06-23T14:37:47.735Z,72.94
2018-06-23T14:40:16.818Z,73.19
2018-06-23T14:42:46.983Z,73.72
2018-06-23T14:45:15.875Z,73.57
2018-06-23T14:47:45.090Z,73.08
2018-06-23T14:50:13.866Z,73.76
2018-06-23T14:52:42.590Z,73.61
2018-06-23T14:55:11.302Z,72.87
2018-06-23T14:57:39.928Z,73.57
2018-06-23T15:00:08.534Z,72.96
2018-06-23T15:02:37.235Z,73.45
2018-06-23T15:05:06.123Z,73.11
2018-06-23T15:07:34.824Z,73.90
2018-06-23T15:10:14.445Z,72.87
2018-06-23T15:12:54.109Z,72.43
2018-06-23T15:15:22.771Z,73.09
2018-06-23T15:17:51.625Z,72.97
2018-06-23T15:20:20.377Z,72.87
2018-06-23T15:22:49.004Z,72.54
2018-06-23T15:25:17.917Z,72.90
2018-06-23T15:27:46.686Z,71.86
2018-06-23T15:30:15.210Z,72.22
2018-06-23T15:32:43.895Z,72.21
2018-06-23T15:35:12.738Z,72.23
2018-06-23T15:37:41.268Z,72.00
2018-06-23T15:40:09.852Z,71.57
2018-06-23T15:42:38.482Z,71.73
2018-06-23T15:45:07.482Z,72.41
2018-06-23T15:47:36.237Z,73.20
2018-06-23T15:50:04.854Z,73.14
2018-06-23T15:52:33.409Z,72.63
2018-06-23T15:55:02.108Z,72.97
2018-06-23T15:57:30.789Z,74.78
2018-06-23T15:59:59.384Z,73.82
2018-06-23T16:02:28.050Z,76.29
2018-06-23T16:04:56.522Z,75.05
2018-06-23T16:07:25.155Z,76.74
2018-06-23T16:09:53.758Z,76.03
2018-06-23T16:12:22.322Z,75.77
2018-06-23T16:14:51.124Z,76.12
2018-06-23T16:17:19.742Z,75.51
2018-06-23T16:19:48.290Z,74.34
2018-06-23T16:22:16.909Z,75.35
2018-06-23T16:24:45.610Z,75.30
2018-06-23T16:27:14.522Z,75.34
2018-06-23T16:29:43.147Z,74.31
2018-06-23T16:32:11.727Z,73.48
2018-06-23T16:34:40.491Z,73.12
2018-06-23T16:37:09.054Z,73.51
2018-06-23T16:39:37.722Z,73.77
2018-06-23T16:42:06.805Z,73.89
2018-06-23T16:44:35.519Z,74.36
2018-06-23T16:47:04.123Z,72.72
2018-06-23T16:49:33.618Z,72.67
2018-06-23T16:52:02.477Z,72.77
2018-06-23T16:54:31.205Z,72.08
2018-06-23T16:56:59.903Z,71.85
2018-06-23T16:59:28.657Z,71.81
2018-06-23T17:01:57.297Z,72.19
2018-06-23T17:04:25.871Z,72.56
2018-06-23T17:06:54.715Z,72.52
2018-06-23T17:09:23.491Z,72.32
2018-06-23T17:11:52.038Z,73.12
2018-06-23T17:14:20.652Z,73.33
2018-06-23T17:16:49.356Z,72.97
2018-06-23T17:19:18.224Z,73.15
2018-06-23T17:21:47.148Z,73.60
2018-06-23T17:24:15.674Z,73.48
2018-06-23T17:26:44.648Z,73.29
2018-06-23T17:29:13.133Z,74.06
2018-06-23T17:31:42.269Z,74.05
2018-06-23T17:34:10.841Z,74.30
2018-06-23T17:36:40.285Z,74.54
2018-06-23T17:39:10.177Z,74.88
2018-06-23T17:41:39.267Z,74.62
2018-06-23T17:44:11.764Z,74.81
2018-06-23T17:46:43.459Z,74.88
2018-06-23T17:49:16.297Z,75.52
2018-06-23T17:51:49.588Z,74.47
2018-06-23T17:54:23.471Z,75.17
2018-06-23T17:56:57.132Z,74.99
2018-06-23T17:59:29.895Z,74.74
2018-06-23T18:01:58.491Z,74.83
2018-06-23T18:04:35.304Z,75.39
2018-06-23T18:07:04.390Z,75.36
2018-06-23T18:09:32.951Z,75.93
2018-06-23T18:12:02.060Z,75.52
2018-06-23T18:14:31.442Z,76.47
2018-06-23T18:17:00.079Z,75.71
2018-06-23T18:19:30.229Z,75.89
2018-06-23T18:21:58.859Z,76.50
2018-06-23T18:24:32.693Z,75.92
2018-06-23T18:27:02.518Z,76.74
2018-06-23T18:29:32.011Z,76.42
2018-06-23T18:32:01.183Z,76.42
2018-06-23T18:34:32.406Z,77.43
2018-06-23T18:37:05.215Z,76.31
2018-06-23T18:39:36.434Z,76.82
2018-06-23T18:42:05.604Z,76.73
2018-06-23T18:44:34.154Z,77.29
2018-06-23T18:47:02.913Z,76.44
2018-06-23T18:49:31.624Z,76.41
2018-06-23T18:52:00.644Z,76.67
2018-06-23T18:54:29.522Z,76.28
2018-06-23T18:56:58.038Z,75.50
2018-06-23T18:59:26.557Z,76.02
2018-06-23T19:01:55.685Z,76.64
2018-06-23T19:04:24.148Z,75.82
2018-06-23T19:06:52.818Z,75.89
2018-06-23T19:09:21.427Z,75.50
2018-06-23T19:11:49.978Z,76.23
2018-06-23T19:14:18.551Z,76.54
2018-06-23T19:16:47.196Z,76.33
2018-06-23T19:19:16.011Z,76.77
2018-06-23T19:21:44.706Z,76.28
2018-06-23T19:24:13.306Z,76.40
2018-06-23T19:26:41.936Z,76.97
2018-06-23T19:29:10.955Z,77.08
2018-06-23T19:31:39.970Z,76.79
2018-06-23T19:34:08.594Z,77.46
2018-06-23T19:36:37.727Z,77.09
2018-06-23T19:39:08.600Z,77.86
2018-06-23T19:41:37.438Z,78.07
2018-06-23T19:44:06.247Z,77.65
2018-06-23T19:46:34.974Z,77.88
2018-06-23T19:49:03.754Z,77.97
2018-06-23T19:51:32.440Z,78.59
2018-06-23T19:54:00.953Z,79.19
2018-06-23T19:56:29.917Z,79.14
2018-06-23T19:58:58.506Z,79.45
2018-06-23T20:01:27.195Z,79.74
2018-06-23T20:03:56.447Z,80.00
2018-06-23T20:06:25.295Z,81.24
2018-06-23T20:08:54.254Z,82.50
2018-06-23T20:11:23.096Z,83.28
2018-06-23T20:13:51.939Z,84.36
2018-06-23T20:16:20.467Z,85.42
2018-06-23T20:18:49.378Z,86.10
2018-06-23T20:21:18.249Z,86.75
2018-06-23T20:23:47.040Z,87.50
2018-06-23T20:26:15.903Z,87.77
2018-06-23T20:28:44.650Z,87.98
2018-06-23T20:31:13.495Z,89.00
2018-06-23T20:33:42.018Z,89.61
2018-06-23T20:36:10.926Z,89.78
2018-06-23T20:38:39.920Z,90.41
2018-06-23T20:41:08.972Z,90.47
2018-06-23T20:43:37.918Z,91.06
2018-06-23T20:46:06.450Z,90.47
2018-06-23T20:48:35.500Z,90.66
2018-06-23T20:51:04.377Z,91.10
2018-06-23T20:53:32.904Z,89.94
2018-06-23T20:56:02.368Z,89.96
2018-06-23T20:58:30.917Z,90.40
2018-06-23T21:00:59.701Z,90.09
2018-06-23T21:03:28.227Z,90.50
2018-06-23T21:05:57.257Z,90.31
2018-06-23T21:08:26.005Z,90.21
2018-06-23T21:10:54.559Z,90.33
2018-06-23T21:13:23.078Z,90.20
2018-06-23T21:15:51.559Z,89.56
2018-06-23T21:18:20.057Z,89.61
2018-06-23T21:20:49.151Z,89.27
2018-06-23T21:23:18.236Z,89.85
2018-06-23T21:25:47.192Z,90.16
2018-06-23T21:28:16.557Z,89.27
2018-06-23T21:30:45.293Z,89.15
2018-06-23T21:33:13.821Z,87.95
2018-06-23T21:35:42.553Z,87.83
2018-06-23T21:38:11.173Z,87.62
2018-06-23T21:40:39.706Z,87.51
2018-06-23T21:43:08.502Z,87.76
2018-06-23T21:45:37.176Z,87.24
2018-06-23T21:48:05.901Z,87.01
2018-06-23T21:50:34.519Z,86.63
2018-06-23T21:53:03.308Z,86.18
2018-06-23T21:55:31.820Z,85.69
2018-06-23T21:58:00.407Z,85.75
2018-06-23T22:00:34.395Z,85.74
2018-06-23T22:03:07.135Z,85.59
2018-06-23T22:05:36.194Z,85.35
2018-06-23T22:08:05.486Z,84.29
2018-06-23T22:10:34.127Z,84.40
2018-06-23T22:13:02.767Z,84.95
2018-06-23T22:15:31.673Z,84.49
2018-06-23T22:18:00.499Z,84.39
2018-06-23T22:20:29.160Z,84.64
2018-06-23T22:22:57.737Z,84.19
2018-06-23T22:25:26.699Z,83.67
2018-06-23T22:27:56.180Z,82.89
2018-06-23T22:30:25.111Z,82.98
2018-06-23T22:32:53.738Z,82.63
2018-06-23T22:35:22.474Z,82.66
2018-06-23T22:37:51.074Z,83.17
2018-06-23T22:40:20.518Z,82.88
2018-06-23T22:42:49.143Z,83.32
2018-06-23T22:45:17.922Z,83.43
2018-06-23T22:47:47.007Z,82.97
2018-06-23T22:50:15.890Z,83.12
2018-06-23T22:52:44.686Z,82.27
2018-06-23T22:55:13.180Z,82.25
2018-06-23T22:57:41.738Z,81.91
2018-06-23T23:00:12.515Z,82.25
2018-06-23T23:02:41.212Z,82.11
2018-06-23T23:05:10.519Z,82.12
2018-06-23T23:07:39.515Z,81.66
2018-06-23T23:10:10.634Z,81.66
2018-06-23T23:12:39.513Z,80.87
2018-06-23T23:15:08.071Z,80.75
2018-06-23T23:17:36.655Z,81.18
2018-06-23T23:20:06.922Z,80.61
2018-06-23T23:22:35.673Z,80.89
2018-06-23T23:25:04.886Z,79.85
2018-06-23T23:27:33.627Z,80.19
2018-06-23T23:30:02.359Z,79.81
2018-06-23T23:32:31.061Z,80.01
2018-06-23T23:34:59.550Z,79.20
2018-06-23T23:37:28.584Z,79.31
2018-06-23T23:39:57.097Z,79.58
2018-06-23T23:42:25.688Z,79.18
2018-06-23T23:44:55.827Z,78.83
2018-06-23T23:47:24.392Z,79.07
2018-06-23T23:49:52.926Z,79.58
2018-06-23T23:52:21.454Z,79.55
2018-06-23T23:54:50.025Z,78.48
2018-06-23T23:57:18.924Z,78.72
2018-06-23T23:59:47.744Z,78.85
